Time;durP1;ratioP1;P1;durP2;ratioP2;P2;SDS_P1;SDS_P2;PMS_P1;PMS_P2;Temp;Humidity;BMP_temperature;BMP_pressure;BME280_temperature;BME280_humidity;BME280_pressure;Samples;Min_cycle;Max_cycle;Signal;HPM_P1;HPM_P2
2021/01/31 00:00:21;;;;;;;2.30;1.33;;;3.40;98.00;;;;;;5068753;28;20473;-65
2021/01/31 00:02:48;;;;;;;1.47;1.10;;;3.40;98.00;;;;;;5071203;28;20467;-65
2021/01/31 00:05:17;;;;;;;1.20;1.10;;;3.40;98.00;;;;;;5068827;28;20456;-66
2021/01/31 00:07:44;;;;;;;1.10;1.00;;;3.40;98.00;;;;;;5071071;28;20456;-64
2021/01/31 00:10:13;;;;;;;1.10;1.00;;;3.30;98.00;;;;;;5068748;28;20533;-65
2021/01/31 00:12:40;;;;;;;1.10;1.00;;;3.40;98.00;;;;;;5070734;28;20955;-65
2021/01/31 00:15:11;;;;;;;1.10;0.90;;;3.40;98.00;;;;;;5068868;28;20529;-65
2021/01/31 00:17:41;;;;;;;1.10;0.90;;;3.40;98.00;;;;;;5070485;28;20460;-65
2021/01/31 00:20:18;;;;;;;1.33;1.27;;;3.50;98.00;;;;;;5069001;28;20808;-66
2021/01/31 00:22:44;;;;;;;1.10;1.00;;;3.40;98.00;;;;;;5071251;28;20553;-65
2021/01/31 00:25:13;;;;;;;1.10;1.00;;;3.40;98.00;;;;;;5068589;28;20488;-66
2021/01/31 00:27:39;;;;;;;3.67;1.70;;;3.40;98.00;;;;;;5070963;28;20464;-65
2021/01/31 00:30:11;;;;;;;1.17;1.07;;;3.50;98.00;;;;;;5068646;28;20456;-65
2021/01/31 00:32:39;;;;;;;1.10;0.90;;;3.40;98.00;;;;;;5069815;28;20583;-65
2021/01/31 00:35:07;;;;;;;1.10;1.00;;;3.40;98.00;;;;;;5068438;28;20464;-66
2021/01/31 00:37:34;;;;;;;1.20;1.10;;;3.40;98.00;;;;;;5070775;28;20461;-64
2021/01/31 00:40:01;;;;;;;1.10;1.00;;;3.30;98.00;;;;;;5068359;28;20488;-65
2021/01/31 00:42:27;;;;;;;1.77;1.20;;;3.40;98.00;;;;;;5070770;28;20460;-66
2021/01/31 00:44:54;;;;;;;1.33;1.20;;;3.40;98.00;;;;;;5068154;28;20499;-65
2021/01/31 00:47:23;;;;;;;1.10;0.90;;;3.40;98.00;;;;;;5070797;28;20981;-65
2021/01/31 00:49:50;;;;;;;1.10;0.90;;;3.40;98.00;;;;;;5068328;28;20487;-65
2021/01/31 00:52:20;;;;;;;1.20;1.20;;;3.50;98.00;;;;;;5071004;28;20497;-65
2021/01/31 00:54:47;;;;;;;1.17;1.10;;;3.40;98.00;;;;;;5072141;28;20857;-65
2021/01/31 00:57:14;;;;;;;1.70;1.30;;;3.30;98.00;;;;;;5074107;28;20468;-65
2021/01/31 00:59:43;;;;;;;1.10;0.97;;;3.20;98.00;;;;;;5071762;28;20566;-65
2021/01/31 01:02:16;;;;;;;1.43;1.10;;;3.20;98.00;;;;;;5074045;28;20459;-66
2021/01/31 01:04:45;;;;;;;1.10;1.00;;;3.20;98.00;;;;;;5071626;28;20463;-66
2021/01/31 01:07:11;;;;;;;1.20;1.10;;;3.30;98.00;;;;;;5074053;28;20538;-65
2021/01/31 01:09:38;;;;;;;1.40;1.30;;;3.40;98.00;;;;;;5071648;28;20491;-64
2021/01/31 01:12:06;;;;;;;1.10;0.90;;;3.50;98.00;;;;;;5074404;28;20490;-65
2021/01/31 01:14:33;;;;;;;1.20;1.20;;;3.40;98.00;;;;;;5071686;28;20453;-65
2021/01/31 01:17:01;;;;;;;1.10;1.00;;;3.30;98.00;;;;;;5074222;28;20485;-65
2021/01/31 01:19:27;;;;;;;1.70;1.60;;;3.20;98.00;;;;;;5071627;28;20482;-64
2021/01/31 01:21:55;;;;;;;1.43;1.30;;;3.30;98.00;;;;;;5074004;28;20521;-64
2021/01/31 01:24:21;;;;;;;1.20;1.20;;;3.20;98.00;;;;;;5071610;28;20500;-67
2021/01/31 01:26:48;;;;;;;1.10;1.00;;;3.30;98.00;;;;;;5073941;28;20499;-64
2021/01/31 01:29:19;;;;;;;1.57;1.27;;;3.50;98.00;;;;;;5071273;28;20480;-64
2021/01/31 01:31:45;;;;;;;1.50;1.30;;;3.50;98.00;;;;;;5073935;28;20456;-65
2021/01/31 01:34:12;;;;;;;1.10;1.00;;;3.50;98.00;;;;;;5071602;28;20456;-67
2021/01/31 01:36:59;;;;;;;2.10;1.43;;;3.40;98.00;;;;;;5073363;28;20453;-65
2021/01/31 01:39:26;;;;;;;1.10;1.00;;;3.30;98.00;;;;;;5071271;28;20456;-65
2021/01/31 01:41:52;;;;;;;1.20;1.20;;;3.30;98.00;;;;;;5072260;28;20511;-66
2021/01/31 01:44:34;;;;;;;1.10;0.90;;;3.30;98.00;;;;;;5071157;28;20510;-66
2021/01/31 01:47:03;;;;;;;1.20;1.10;;;3.20;98.00;;;;;;5073105;28;20499;-65
2021/01/31 01:49:32;;;;;;;1.40;1.10;;;3.20;98.00;;;;;;5071163;28;20484;-65
2021/01/31 01:52:03;;;;;;;1.20;1.17;;;3.10;98.00;;;;;;5073270;28;20499;-65
2021/01/31 01:54:34;;;;;;;1.30;1.20;;;3.10;98.00;;;;;;5070871;28;20460;-65
2021/01/31 01:57:04;;;;;;;1.83;1.30;;;3.00;98.00;;;;;;5071904;28;20479;-64
2021/01/31 01:59:34;;;;;;;1.30;1.27;;;3.00;98.00;;;;;;5070792;28;20456;-65
2021/01/31 02:02:07;;;;;;;1.10;0.90;;;2.90;98.00;;;;;;5073523;28;20519;-65
2021/01/31 02:04:34;;;;;;;2.80;2.03;;;2.90;98.00;;;;;;5070801;28;20535;-64
2021/01/31 02:07:01;;;;;;;1.10;1.00;;;3.00;98.00;;;;;;5073241;28;20460;-64
2021/01/31 02:09:28;;;;;;;1.20;1.10;;;3.00;98.00;;;;;;5070765;28;20538;-64
2021/01/31 02:11:58;;;;;;;1.20;1.10;;;3.00;98.00;;;;;;5073154;28;20460;-65
2021/01/31 02:14:26;;;;;;;1.20;1.10;;;3.00;98.00;;;;;;5070561;28;20521;-64
2021/01/31 02:16:58;;;;;;;1.40;1.23;;;3.00;98.00;;;;;;5073050;28;20449;-66
2021/01/31 02:20:05;;;;;;;1.33;1.30;;;2.90;98.00;;;;;;5070610;28;20471;-66
2021/01/31 02:23:23;;;;;;;1.10;1.03;;;3.00;98.00;;;;;;5072868;28;20492;-64
2021/01/31 02:26:01;;;;;;;2.17;1.60;;;3.00;98.00;;;;;;5070231;28;20542;-66
2021/01/31 02:29:00;;;;;;;1.20;1.10;;;3.00;98.00;;;;;;5072634;28;21021;-64
2021/01/31 02:31:47;;;;;;;1.10;1.03;;;3.00;98.00;;;;;;5070527;28;20465;-66
2021/01/31 02:34:25;;;;;;;1.10;1.00;;;2.90;98.00;;;;;;5070172;28;20670;-64
2021/01/31 02:37:03;;;;;;;1.10;1.00;;;2.90;98.00;;;;;;5072595;28;20487;-67
2021/01/31 02:39:40;;;;;;;1.20;1.17;;;2.80;98.00;;;;;;5069785;28;21333;-65
2021/01/31 02:42:22;;;;;;;1.20;1.20;;;2.80;98.00;;;;;;5072222;28;20460;-65
2021/01/31 02:44:57;;;;;;;1.10;1.00;;;2.80;98.00;;;;;;5069519;28;20944;-64
2021/01/31 02:47:25;;;;;;;1.10;1.10;;;2.70;98.00;;;;;;5072375;28;20466;-65
2021/01/31 02:49:55;;;;;;;2.43;1.40;;;2.70;98.00;;;;;;5069735;28;20872;-64
2021/01/31 02:52:25;;;;;;;1.10;1.00;;;2.70;98.00;;;;;;5072329;28;20502;-64
2021/01/31 02:54:57;;;;;;;1.30;1.20;;;2.70;98.00;;;;;;5069743;28;20459;-65
2021/01/31 02:57:29;;;;;;;2.07;1.40;;;2.60;98.00;;;;;;5072229;28;20506;-65
2021/01/31 03:00:06;;;;;;;1.30;1.20;;;2.60;98.00;;;;;;5069820;28;20536;-63
2021/01/31 03:02:36;;;;;;;1.10;1.00;;;2.60;98.00;;;;;;5072126;28;20462;-66
2021/01/31 03:05:08;;;;;;;1.83;1.50;;;2.60;98.00;;;;;;5069980;28;20484;-64
2021/01/31 03:07:41;;;;;;;1.37;1.23;;;2.60;98.00;;;;;;5072090;28;20446;-64
2021/01/31 03:10:11;;;;;;;1.33;1.30;;;2.80;98.00;;;;;;5069491;28;20483;-64
2021/01/31 03:12:43;;;;;;;1.53;1.30;;;2.80;98.00;;;;;;5071928;28;20463;-66
2021/01/31 03:15:13;;;;;;;1.10;1.03;;;2.90;98.00;;;;;;5069376;28;20969;-65
2021/01/31 03:17:43;;;;;;;1.27;1.23;;;2.90;98.00;;;;;;5071773;28;20899;-65
2021/01/31 03:20:18;;;;;;;1.10;1.00;;;2.90;98.00;;;;;;5069497;28;20462;-64
2021/01/31 03:22:48;;;;;;;1.10;0.93;;;2.90;98.00;;;;;;5071740;28;20968;-66
2021/01/31 03:25:21;;;;;;;1.10;1.10;;;2.90;98.00;;;;;;5069262;28;20465;-65
2021/01/31 03:27:48;;;;;;;1.20;1.10;;;2.90;98.00;;;;;;5071704;28;20823;-64
2021/01/31 03:30:17;;;;;;;1.20;1.00;;;3.00;98.00;;;;;;5069305;28;21032;-66
2021/01/31 03:32:48;;;;;;;1.10;0.90;;;2.90;98.00;;;;;;5071603;28;20449;-64
2021/01/31 03:35:20;;;;;;;1.60;1.43;;;3.00;98.00;;;;;;5069322;28;20468;-65
2021/01/31 03:37:53;;;;;;;1.30;1.27;;;3.00;98.00;;;;;;5071634;28;20466;-65
2021/01/31 03:40:23;;;;;;;1.20;1.10;;;3.00;98.00;;;;;;5068780;28;20456;-64
2021/01/31 03:42:50;;;;;;;1.40;1.40;;;3.00;98.00;;;;;;5071892;28;20456;-66
2021/01/31 03:45:21;;;;;;;1.57;1.17;;;3.10;98.00;;;;;;5069157;28;20471;-65
2021/01/31 03:47:54;;;;;;;1.20;1.03;;;3.10;98.00;;;;;;5071689;28;20569;-65
2021/01/31 03:50:21;;;;;;;1.27;1.23;;;3.10;98.00;;;;;;5069106;28;20555;-66
2021/01/31 03:52:48;;;;;;;2.07;1.97;;;3.10;98.00;;;;;;5071540;28;20456;-66
2021/01/31 03:55:14;;;;;;;1.57;1.50;;;3.00;98.00;;;;;;5068950;28;20498;-66
2021/01/31 03:57:45;;;;;;;3.83;1.40;;;3.10;98.00;;;;;;5071414;28;20488;-64
2021/01/31 04:00:16;;;;;;;1.20;1.10;;;3.10;98.00;;;;;;5069039;28;20463;-66
2021/01/31 04:02:50;;;;;;;6.40;3.10;;;3.00;98.00;;;;;;5071370;28;20464;-64
2021/01/31 04:05:19;;;;;;;1.17;0.90;;;3.10;98.00;;;;;;5068887;28;21015;-67
2021/01/31 04:07:51;;;;;;;1.80;1.63;;;3.20;98.00;;;;;;5071263;28;20836;-66
2021/01/31 04:10:17;;;;;;;1.17;1.00;;;3.20;98.00;;;;;;5068370;28;20481;-65
2021/01/31 04:12:48;;;;;;;2.07;1.77;;;3.20;98.00;;;;;;5070442;28;20487;-66
2021/01/31 04:15:30;;;;;;;1.10;1.00;;;3.10;98.00;;;;;;5068030;28;20967;-65
2021/01/31 04:17:56;;;;;;;1.77;1.30;;;3.20;98.00;;;;;;5070750;28;20457;-65
2021/01/31 04:20:23;;;;;;;5.00;2.43;;;3.10;98.00;;;;;;5068637;28;20448;-65
2021/01/31 04:22:50;;;;;;;1.13;1.10;;;2.90;98.00;;;;;;5071140;28;20506;-64
2021/01/31 04:25:17;;;;;;;1.10;1.00;;;2.70;98.00;;;;;;5068778;28;20885;-65
2021/01/31 04:27:43;;;;;;;1.13;1.10;;;2.70;98.00;;;;;;5072212;28;20458;-65
2021/01/31 04:30:11;;;;;;;2.60;1.73;;;2.70;98.00;;;;;;5072605;28;20523;-65
2021/01/31 04:32:38;;;;;;;2.60;1.53;;;2.70;98.00;;;;;;5074946;28;20482;-66
2021/01/31 04:35:06;;;;;;;1.10;1.00;;;2.70;98.00;;;;;;5072820;28;20564;-65
2021/01/31 04:37:33;;;;;;;1.10;0.93;;;2.60;98.00;;;;;;5075013;28;20958;-65
2021/01/31 04:40:00;;;;;;;1.40;1.40;;;2.70;98.00;;;;;;5072502;28;20515;-64
2021/01/31 04:42:28;;;;;;;2.13;1.07;;;2.60;98.00;;;;;;5074546;28;20510;-64
2021/01/31 04:44:54;;;;;;;1.10;1.00;;;2.60;98.00;;;;;;5071943;28;20456;-64
2021/01/31 04:47:25;;;;;;;1.67;1.33;;;2.50;98.00;;;;;;5074185;28;20905;-66
2021/01/31 04:50:03;;;;;;;1.10;1.10;;;2.50;98.00;;;;;;5071941;28;20497;-64
2021/01/31 04:52:48;;;;;;;1.20;1.10;;;2.60;98.00;;;;;;5074316;28;20498;-65
2021/01/31 04:55:49;;;;;;;1.50;1.23;;;2.60;98.00;;;;;;5072092;28;20530;-66
2021/01/31 04:58:18;;;;;;;1.10;1.07;;;2.60;98.00;;;;;;5074451;28;20499;-64
2021/01/31 05:00:51;;;;;;;1.27;1.20;;;2.60;98.00;;;;;;5071872;28;20500;-66
2021/01/31 05:03:20;;;;;;;3.40;1.40;;;2.60;98.00;;;;;;5074247;28;20506;-65
2021/01/31 05:05:52;;;;;;;1.30;1.17;;;2.60;98.00;;;;;;5070648;28;20564;-64
2021/01/31 05:08:21;;;;;;;1.57;1.47;;;2.60;98.00;;;;;;5074307;28;20491;-64
2021/01/31 05:10:50;;;;;;;2.23;2.03;;;2.60;98.00;;;;;;5071684;28;20970;-66
2021/01/31 05:13:35;;;;;;;1.47;1.20;;;2.70;98.00;;;;;;5074263;28;20981;-65
2021/01/31 05:16:07;;;;;;;1.17;1.10;;;2.70;98.00;;;;;;5070719;28;20452;-65
2021/01/31 05:18:35;;;;;;;1.10;0.90;;;2.60;98.00;;;;;;5074118;28;20479;-65
2021/01/31 05:21:06;;;;;;;1.43;1.43;;;2.60;98.00;;;;;;5071371;28;20460;-66
2021/01/31 05:23:35;;;;;;;1.10;0.90;;;2.60;98.00;;;;;;5074206;28;20484;-66
2021/01/31 05:26:04;;;;;;;1.20;1.10;;;2.60;98.00;;;;;;5071885;28;20456;-66
2021/01/31 05:28:32;;;;;;;1.20;1.10;;;2.50;98.00;;;;;;5073997;28;20997;-65
2021/01/31 05:30:59;;;;;;;1.10;0.90;;;2.50;98.00;;;;;;5070500;28;20518;-65
2021/01/31 05:33:26;;;;;;;1.20;1.17;;;2.50;98.00;;;;;;5073924;28;20484;-65
2021/01/31 05:35:55;;;;;;;2.90;1.33;;;2.50;98.00;;;;;;5070334;28;20452;-67
2021/01/31 05:38:38;;;;;;;1.10;1.10;;;2.50;98.00;;;;;;5073295;28;20456;-64
2021/01/31 05:41:32;;;;;;;1.10;1.07;;;2.50;98.00;;;;;;5085315;28;20509;-65
2021/01/31 05:44:00;;;;;;;1.63;1.53;;;2.50;98.00;;;;;;5073787;28;21051;-65
2021/01/31 05:46:38;;;;;;;1.20;1.10;;;2.50;98.00;;;;;;5071218;28;20464;-65
2021/01/31 05:49:06;;;;;;;1.10;1.00;;;2.60;98.00;;;;;;5073564;28;20484;-64
2021/01/31 05:51:34;;;;;;;1.10;0.90;;;2.60;98.00;;;;;;5070930;28;20460;-64
2021/01/31 05:54:30;;;;;;;1.10;1.00;;;2.50;98.00;;;;;;5073422;28;20448;-64
2021/01/31 05:56:57;;;;;;;1.67;1.10;;;2.50;98.00;;;;;;5048572;28;20479;-66
2021/01/31 05:59:24;;;;;;;1.10;0.90;;;2.50;98.00;;;;;;5073176;28;20958;-66
2021/01/31 06:01:56;;;;;;;1.10;1.00;;;2.60;98.00;;;;;;5070897;28;20459;-64
2021/01/31 06:04:25;;;;;;;2.33;1.70;;;2.70;98.00;;;;;;5073118;28;20532;-66
2021/01/31 06:06:53;;;;;;;1.73;1.57;;;2.90;98.00;;;;;;5070670;28;20466;-64
2021/01/31 06:09:34;;;;;;;1.13;1.00;;;2.90;98.00;;;;;;5073051;28;20993;-65
2021/01/31 06:12:07;;;;;;;1.27;1.23;;;2.80;98.00;;;;;;5073188;28;21008;-66
2021/01/31 06:14:36;;;;;;;1.30;1.23;;;2.70;98.00;;;;;;5070426;28;20464;-65
2021/01/31 06:17:06;;;;;;;1.10;1.00;;;2.70;98.00;;;;;;5072948;28;20463;-64
2021/01/31 06:19:37;;;;;;;3.00;2.60;;;2.90;98.00;;;;;;5070910;28;20453;-65
2021/01/31 06:22:05;;;;;;;2.07;1.93;;;3.00;98.00;;;;;;5073094;28;20492;-65
2021/01/31 06:24:43;;;;;;;1.10;0.90;;;3.00;98.00;;;;;;5071595;28;20456;-65
2021/01/31 06:27:15;;;;;;;1.43;1.40;;;2.90;98.00;;;;;;5072801;28;20930;-66
2021/01/31 06:29:48;;;;;;;1.20;1.10;;;3.00;98.00;;;;;;5070211;28;20608;-64
2021/01/31 06:32:18;;;;;;;1.57;1.57;;;3.10;98.00;;;;;;5072782;28;20768;-65
2021/01/31 06:34:48;;;;;;;1.10;1.00;;;3.20;98.00;;;;;;5070346;28;20453;-64
2021/01/31 06:37:34;;;;;;;1.33;1.23;;;3.10;98.00;;;;;;5072615;28;20854;-66
2021/01/31 06:40:13;;;;;;;1.20;1.03;;;3.00;98.00;;;;;;5070193;28;20502;-65
2021/01/31 06:42:52;;;;;;;1.83;1.73;;;2.90;98.00;;;;;;5072398;28;20516;-66
2021/01/31 06:45:29;;;;;;;1.10;0.97;;;2.90;98.00;;;;;;5068101;28;20806;-64
2021/01/31 06:48:28;;;;;;;1.43;1.40;;;2.80;98.00;;;;;;5071716;28;20470;-65
2021/01/31 06:51:08;;;;;;;1.10;1.07;;;2.90;98.00;;;;;;5068958;28;20510;-65
2021/01/31 06:54:03;;;;;;;1.23;1.23;;;2.90;98.00;;;;;;5072232;28;20830;-64
2021/01/31 06:56:55;;;;;;;1.10;1.00;;;2.90;98.00;;;;;;5069595;28;20500;-66
2021/01/31 07:00:10;;;;;;;1.17;1.07;;;2.90;98.00;;;;;;5071897;28;20971;-65
2021/01/31 07:02:58;;;;;;;1.10;0.90;;;2.80;98.00;;;;;;5029184;28;20458;-66
2021/01/31 07:06:02;;;;;;;1.10;0.90;;;2.70;98.00;;;;;;5065179;28;20504;-65
2021/01/31 07:09:02;;;;;;;1.10;0.90;;;2.70;98.00;;;;;;5071676;28;20492;-66
2021/01/31 07:11:35;;;;;;;1.20;1.10;;;2.60;98.00;;;;;;5069931;28;20463;-66
2021/01/31 07:14:18;;;;;;;1.10;0.90;;;2.60;98.00;;;;;;5072206;28;20460;-65
2021/01/31 07:16:52;;;;;;;1.10;0.90;;;2.60;98.00;;;;;;5069495;28;20466;-65
2021/01/31 07:19:23;;;;;;;1.10;1.00;;;2.60;98.00;;;;;;5071847;28;20467;-64
2021/01/31 07:21:58;;;;;;;1.10;1.00;;;2.70;98.00;;;;;;5069354;28;20982;-64
2021/01/31 07:24:29;;;;;;;1.30;1.30;;;2.70;98.00;;;;;;5071757;28;20517;-65
2021/01/31 07:27:01;;;;;;;1.10;1.00;;;2.70;98.00;;;;;;5069610;28;20464;-65
2021/01/31 07:29:34;;;;;;;1.10;1.10;;;2.70;98.00;;;;;;5071575;28;20487;-65
2021/01/31 07:32:07;;;;;;;1.10;1.10;;;2.60;98.00;;;;;;5069414;28;20448;-64
2021/01/31 07:34:38;;;;;;;1.40;1.00;;;2.60;98.00;;;;;;5071473;28;20561;-65
2021/01/31 07:37:11;;;;;;;1.10;0.90;;;2.60;98.00;;;;;;5070501;28;20823;-66
2021/01/31 07:39:48;;;;;;;1.10;0.90;;;2.60;98.00;;;;;;5070022;28;20459;-65
2021/01/31 07:42:17;;;;;;;1.10;1.00;;;2.70;98.00;;;;;;5071510;28;20498;-66
2021/01/31 07:44:45;;;;;;;5.00;2.30;;;2.90;98.00;;;;;;5068912;28;20475;-66
2021/01/31 07:47:13;;;;;;;1.10;0.90;;;3.00;98.00;;;;;;5071387;28;20461;-64
2021/01/31 07:50:16;;;;;;;1.10;1.00;;;2.90;98.00;;;;;;5070020;28;20523;-66
2021/01/31 07:52:52;;;;;;;2.03;1.53;;;2.90;98.00;;;;;;5071189;28;20498;-64
2021/01/31 07:55:35;;;;;;;1.23;1.20;;;2.90;98.00;;;;;;5068981;28;20471;-64
2021/01/31 07:58:38;;;;;;;1.53;1.10;;;2.80;98.00;;;;;;5071487;28;20475;-65
2021/01/31 08:01:11;;;;;;;1.10;1.00;;;2.80;98.00;;;;;;5066624;28;20945;-64
2021/01/31 08:03:41;;;;;;;1.10;1.00;;;2.80;98.00;;;;;;5078079;28;20490;-65
2021/01/31 08:06:10;;;;;;;1.37;1.33;;;3.00;98.00;;;;;;5075898;28;20452;-65
2021/01/31 08:08:39;;;;;;;1.20;1.03;;;3.00;98.00;;;;;;5078049;28;20570;-66
2021/01/31 08:11:06;;;;;;;1.10;1.00;;;3.00;98.00;;;;;;5075969;28;20449;-66
2021/01/31 08:13:43;;;;;;;1.10;1.00;;;3.00;98.00;;;;;;5077941;28;20943;-65
2021/01/31 08:16:40;;;;;;;1.37;1.30;;;3.00;98.00;;;;;;5075621;28;20463;-65
2021/01/31 08:19:11;;;;;;;1.23;1.17;;;3.00;98.00;;;;;;5060419;28;20460;-64
2021/01/31 08:21:50;;;;;;;1.10;1.00;;;3.00;98.00;;;;;;5075376;28;20973;-65
2021/01/31 08:24:50;;;;;;;1.20;1.07;;;3.00;98.00;;;;;;5077805;28;20952;-67
2021/01/31 08:27:41;;;;;;;1.10;1.00;;;3.00;98.00;;;;;;5077678;28;20502;-65
2021/01/31 08:30:16;;;;;;;1.10;0.90;;;3.10;98.00;;;;;;5074859;28;20540;-66
2021/01/31 08:33:20;;;;;;;1.10;1.00;;;3.20;98.00;;;;;;5077632;28;20459;-66
2021/01/31 08:36:03;;;;;;;3.30;2.57;;;3.30;98.00;;;;;;5059538;28;20514;-64
2021/01/31 08:38:42;;;;;;;1.27;1.23;;;3.30;98.00;;;;;;5077726;28;20459;-67
2021/01/31 08:41:31;;;;;;;1.50;1.40;;;3.30;98.00;;;;;;5075431;28;20815;-65
2021/01/31 08:44:20;;;;;;;1.73;1.10;;;3.30;98.00;;;;;;5075612;28;20457;-64
2021/01/31 08:46:56;;;;;;;1.10;1.10;;;3.30;98.00;;;;;;5074359;28;20819;-65
2021/01/31 08:49:22;;;;;;;3.00;1.50;;;3.20;98.00;;;;;;5076671;28;20494;-67
2021/01/31 08:51:58;;;;;;;1.40;1.10;;;3.30;98.00;;;;;;5074664;28;20496;-66
2021/01/31 08:54:25;;;;;;;1.40;1.27;;;3.40;98.00;;;;;;5076720;28;20459;-65
2021/01/31 08:56:54;;;;;;;1.47;1.27;;;3.40;98.00;;;;;;5073288;28;20492;-65
2021/01/31 08:59:23;;;;;;;1.93;1.40;;;3.40;98.00;;;;;;5076713;28;20958;-65
2021/01/31 09:01:53;;;;;;;1.40;1.30;;;3.40;98.00;;;;;;5074777;28;20620;-67
2021/01/31 09:04:20;;;;;;;1.20;1.10;;;3.50;98.00;;;;;;5077034;28;20456;-66
2021/01/31 09:06:53;;;;;;;1.10;1.00;;;3.50;98.00;;;;;;5074630;28;20463;-64
2021/01/31 09:09:24;;;;;;;3.03;1.73;;;3.50;98.00;;;;;;5076731;28;20513;-66
2021/01/31 09:11:52;;;;;;;1.90;1.70;;;3.50;98.00;;;;;;5074461;28;20496;-65
2021/01/31 09:14:20;;;;;;;1.20;1.00;;;3.60;98.00;;;;;;5073760;28;20562;-66
2021/01/31 09:16:47;;;;;;;1.20;1.10;;;3.60;98.00;;;;;;5071204;28;20461;-65
2021/01/31 09:19:19;;;;;;;1.30;1.10;;;3.70;98.00;;;;;;5073146;28;20457;-65
2021/01/31 09:21:48;;;;;;;4.10;1.70;;;3.70;98.00;;;;;;5070934;28;20495;-64
2021/01/31 09:24:18;;;;;;;1.10;0.90;;;3.70;98.00;;;;;;5073396;28;20461;-65
2021/01/31 09:26:54;;;;;;;1.10;1.00;;;3.70;98.00;;;;;;5071014;28;20488;-67
2021/01/31 09:29:24;;;;;;;1.10;1.10;;;3.70;98.00;;;;;;5072691;28;20484;-65
2021/01/31 09:31:55;;;;;;;1.20;1.20;;;3.80;98.00;;;;;;5070867;28;20457;-63
2021/01/31 09:34:24;;;;;;;1.47;1.43;;;3.70;98.00;;;;;;5072011;28;20496;-65
2021/01/31 09:37:06;;;;;;;1.60;1.50;;;3.80;98.00;;;;;;5071060;28;20489;-63
2021/01/31 09:39:35;;;;;;;1.20;1.10;;;3.90;98.00;;;;;;5072712;28;20502;-64
2021/01/31 09:42:06;;;;;;;1.50;1.47;;;4.30;98.00;;;;;;5070931;28;20475;-63
2021/01/31 09:44:35;;;;;;;1.10;0.90;;;4.50;98.00;;;;;;5073032;28;20492;-64
2021/01/31 09:47:03;;;;;;;1.10;1.10;;;4.90;98.00;;;;;;5070959;28;20468;-67
2021/01/31 09:49:29;;;;;;;1.27;1.10;;;5.30;98.00;;;;;;5072376;28;20963;-64
2021/01/31 09:52:05;;;;;;;2.07;1.23;;;5.60;98.00;;;;;;5070910;28;20454;-65
2021/01/31 09:54:34;;;;;;;1.20;1.00;;;5.70;98.00;;;;;;5072989;28;20459;-64
2021/01/31 09:57:04;;;;;;;2.00;1.67;;;5.70;98.00;;;;;;5070426;28;20464;-65
2021/01/31 09:59:33;;;;;;;1.63;1.20;;;5.50;98.00;;;;;;5072362;28;20480;-65
2021/01/31 10:02:07;;;;;;;1.93;1.50;;;5.50;98.00;;;;;;5070624;28;20461;-65
2021/01/31 10:04:35;;;;;;;1.20;1.20;;;5.90;98.00;;;;;;5072186;28;20457;-63
2021/01/31 10:07:07;;;;;;;2.23;1.67;;;6.30;98.00;;;;;;5069948;28;20507;-63
2021/01/31 10:09:36;;;;;;;1.20;0.90;;;6.00;98.00;;;;;;5071561;28;20564;-64
2021/01/31 10:12:15;;;;;;;1.70;1.50;;;6.20;98.00;;;;;;5070414;28;20489;-63
2021/01/31 10:14:44;;;;;;;1.37;1.23;;;6.40;98.00;;;;;;5071287;28;21162;-64
2021/01/31 10:17:15;;;;;;;1.60;1.40;;;6.40;98.00;;;;;;5069825;28;20465;-64
2021/01/31 10:19:42;;;;;;;1.70;1.60;;;6.30;98.00;;;;;;5071966;28;20449;-64
2021/01/31 10:22:16;;;;;;;2.20;1.67;;;5.60;98.00;;;;;;5069988;28;20918;-65
2021/01/31 10:24:48;;;;;;;2.90;1.73;;;5.30;98.00;;;;;;5071728;28;20460;-63
2021/01/31 10:27:25;;;;;;;2.13;1.60;;;5.00;98.00;;;;;;5069438;28;20457;-64
2021/01/31 10:29:55;;;;;;;1.20;1.00;;;4.80;98.00;;;;;;5071815;28;20886;-64
2021/01/31 10:32:37;;;;;;;1.20;1.10;;;4.70;98.00;;;;;;5072208;28;20943;-64
2021/01/31 10:35:30;;;;;;;1.20;1.00;;;4.50;98.00;;;;;;5069971;28;20485;-64
2021/01/31 10:37:58;;;;;;;3.77;1.50;;;4.50;98.00;;;;;;5071526;28;20468;-66
2021/01/31 10:40:24;;;;;;;1.30;1.10;;;4.60;98.00;;;;;;5069692;28;20812;-65
2021/01/31 10:42:53;;;;;;;1.20;1.00;;;4.60;98.00;;;;;;5071958;28;21020;-67
2021/01/31 10:45:22;;;;;;;1.30;1.10;;;4.60;98.00;;;;;;5069631;28;20492;-66
2021/01/31 10:47:49;;;;;;;1.20;0.90;;;4.80;98.00;;;;;;5071705;28;20460;-65
2021/01/31 10:50:18;;;;;;;1.60;1.23;;;4.90;98.00;;;;;;5069264;28;20484;-64
2021/01/31 10:52:46;;;;;;;1.20;1.00;;;4.80;98.00;;;;;;5071727;28;20457;-65
2021/01/31 10:55:13;;;;;;;1.60;1.20;;;4.90;98.00;;;;;;5069344;28;20465;-65
2021/01/31 10:57:40;;;;;;;1.20;1.00;;;4.80;98.00;;;;;;5071264;28;20504;-65
2021/01/31 11:00:10;;;;;;;1.53;1.30;;;4.90;98.00;;;;;;5069067;28;20457;-66
2021/01/31 11:02:36;;;;;;;3.33;1.73;;;4.90;98.00;;;;;;5071622;28;20457;-65
2021/01/31 11:05:07;;;;;;;1.20;1.00;;;4.90;98.00;;;;;;5069946;28;20460;-65
2021/01/31 11:07:34;;;;;;;1.27;1.23;;;5.10;98.00;;;;;;5071550;28;20453;-65
2021/01/31 11:10:01;;;;;;;2.03;1.40;;;5.10;98.00;;;;;;5070193;28;21252;-65
2021/01/31 11:12:28;;;;;;;1.20;1.00;;;5.00;98.00;;;;;;5071701;28;20464;-66
2021/01/31 11:14:55;;;;;;;4.13;1.97;;;4.80;98.00;;;;;;5071436;28;20458;-65
2021/01/31 11:17:22;;;;;;;1.20;1.20;;;4.80;98.00;;;;;;5069549;28;20464;-64
2021/01/31 11:19:49;;;;;;;1.20;1.10;;;4.70;98.00;;;;;;5071004;28;20486;-66
2021/01/31 11:22:15;;;;;;;1.30;1.20;;;4.60;98.00;;;;;;5068843;28;20520;-65
2021/01/31 11:24:42;;;;;;;1.37;1.27;;;4.60;98.00;;;;;;5071392;28;20464;-67
2021/01/31 11:27:08;;;;;;;1.93;1.10;;;4.60;98.00;;;;;;5069094;28;20459;-64
2021/01/31 11:29:35;;;;;;;1.60;1.40;;;4.70;98.00;;;;;;5070452;28;20618;-65
2021/01/31 11:32:01;;;;;;;3.17;1.40;;;4.70;98.00;;;;;;5068571;28;20463;-64
2021/01/31 11:34:32;;;;;;;1.20;0.90;;;4.60;98.00;;;;;;5071283;28;20444;-65
2021/01/31 11:36:58;;;;;;;2.07;1.60;;;4.60;98.00;;;;;;5068365;28;20880;-64
2021/01/31 11:39:25;;;;;;;1.73;1.47;;;4.60;98.00;;;;;;5070725;28;20506;-65
2021/01/31 11:41:51;;;;;;;1.47;1.30;;;4.60;98.00;;;;;;5068705;28;20479;-66
2021/01/31 11:44:18;;;;;;;1.20;1.00;;;4.60;98.00;;;;;;5070919;28;20485;-64
2021/01/31 11:46:44;;;;;;;1.47;1.20;;;4.60;98.00;;;;;;5068471;28;20870;-64
2021/01/31 11:49:11;;;;;;;1.20;1.10;;;4.60;98.00;;;;;;5070464;28;20959;-65
2021/01/31 11:51:39;;;;;;;1.20;1.00;;;4.60;98.00;;;;;;5068478;28;20459;-65
2021/01/31 11:54:05;;;;;;;1.20;1.03;;;4.60;98.00;;;;;;5071040;28;20456;-65
2021/01/31 11:56:32;;;;;;;1.40;1.20;;;4.50;98.00;;;;;;5068481;28;20473;-64
2021/01/31 11:59:00;;;;;;;1.20;1.00;;;4.40;98.00;;;;;;5070382;28;20459;-65
2021/01/31 12:01:26;;;;;;;1.20;0.90;;;4.50;98.00;;;;;;5068542;28;20456;-66
2021/01/31 12:03:53;;;;;;;1.20;1.00;;;4.50;98.00;;;;;;5069116;28;20471;-63
2021/01/31 12:06:20;;;;;;;1.77;1.20;;;4.70;98.00;;;;;;5068730;28;21159;-65
2021/01/31 12:08:50;;;;;;;1.20;1.00;;;4.80;98.00;;;;;;5068784;28;20456;-66
2021/01/31 12:11:17;;;;;;;2.27;1.20;;;5.00;98.00;;;;;;5068843;28;20475;-66
2021/01/31 12:13:44;;;;;;;2.07;1.40;;;5.00;98.00;;;;;;5070866;28;20460;-66
2021/01/31 12:16:10;;;;;;;1.50;1.20;;;4.90;98.00;;;;;;5068218;28;20481;-68
2021/01/31 12:18:37;;;;;;;1.80;1.60;;;4.90;98.00;;;;;;5070182;28;20855;-64
2021/01/31 12:21:04;;;;;;;1.20;1.00;;;4.90;98.00;;;;;;5068724;28;20457;-64
2021/01/31 12:23:30;;;;;;;1.30;1.10;;;4.90;98.00;;;;;;5070798;28;20530;-64
2021/01/31 12:25:58;;;;;;;1.20;0.97;;;5.00;98.00;;;;;;5068162;28;20461;-65
2021/01/31 12:28:24;;;;;;;1.20;1.00;;;5.00;98.00;;;;;;5070229;28;20508;-64
2021/01/31 12:30:51;;;;;;;1.40;1.33;;;5.00;98.00;;;;;;5068361;28;20491;-66
2021/01/31 12:33:17;;;;;;;1.20;1.00;;;5.10;98.00;;;;;;5069392;28;20833;-64
2021/01/31 12:35:45;;;;;;;1.40;1.10;;;5.00;98.00;;;;;;5068132;28;20457;-65
2021/01/31 12:38:13;;;;;;;1.20;1.00;;;5.10;98.00;;;;;;5069835;28;21080;-65
2021/01/31 12:40:39;;;;;;;1.90;1.13;;;5.00;98.00;;;;;;5067794;28;20538;-64
2021/01/31 12:43:07;;;;;;;4.13;1.50;;;4.90;98.00;;;;;;5070476;28;20488;-66
2021/01/31 12:45:37;;;;;;;1.30;1.20;;;4.80;98.00;;;;;;5067931;28;20496;-65
2021/01/31 12:48:04;;;;;;;1.20;0.93;;;4.70;98.00;;;;;;5069856;28;20484;-65
2021/01/31 12:50:31;;;;;;;1.20;1.00;;;4.70;98.00;;;;;;5071530;28;20488;-64
2021/01/31 12:52:58;;;;;;;1.40;1.33;;;4.80;98.00;;;;;;5073959;28;20966;-65
2021/01/31 12:55:24;;;;;;;1.63;1.57;;;4.70;98.00;;;;;;5071264;28;20484;-66
2021/01/31 12:57:52;;;;;;;1.70;1.40;;;4.60;98.00;;;;;;5073605;28;20496;-65
2021/01/31 13:00:22;;;;;;;1.77;1.30;;;4.70;98.00;;;;;;5071177;28;20457;-65
2021/01/31 13:02:49;;;;;;;2.47;1.93;;;4.80;98.00;;;;;;5072890;28;20491;-65
2021/01/31 13:05:18;;;;;;;1.20;1.00;;;4.90;98.00;;;;;;5071743;28;20775;-65
2021/01/31 13:07:45;;;;;;;2.20;1.70;;;4.90;98.00;;;;;;5072441;28;20460;-65
2021/01/31 13:10:12;;;;;;;1.30;1.20;;;5.00;98.00;;;;;;5072192;28;20569;-66
2021/01/31 13:12:39;;;;;;;1.60;1.23;;;5.00;98.00;;;;;;5073777;28;20479;-63
2021/01/31 13:15:07;;;;;;;1.70;1.47;;;5.10;98.00;;;;;;5073863;28;20514;-64
2021/01/31 13:17:34;;;;;;;1.20;1.17;;;5.20;98.00;;;;;;5070952;28;20499;-66
2021/01/31 13:20:01;;;;;;;2.00;1.63;;;5.30;98.00;;;;;;5073275;28;20457;-65
2021/01/31 13:22:27;;;;;;;1.20;1.00;;;5.40;98.00;;;;;;5071366;28;20510;-66